sensor_id;sensor_type;location;lat;lon;timestamp;temperature;humidity
25953;DHT22;13750;50.804;8.764;2023-04-01T00:00:15;10.30;84.70
25953;DHT22;13750;50.804;8.764;2023-04-01T00:02:41;10.30;84.70
25953;DHT22;13750;50.804;8.764;2023-04-01T00:05:07;10.30;84.60
25953;DHT22;13750;50.804;8.764;2023-04-01T00:07:33;10.30;84.70
25953;DHT22;13750;50.804;8.764;2023-04-01T00:09:59;10.30;84.70
25953;DHT22;13750;50.804;8.764;2023-04-01T00:12:24;10.30;84.80
25953;DHT22;13750;50.804;8.764;2023-04-01T00:14:50;10.30;84.80
25953;DHT22;13750;50.804;8.764;2023-04-01T00:17:16;10.30;84.80
25953;DHT22;13750;50.804;8.764;2023-04-01T00:19:42;10.20;84.80
25953;DHT22;13750;50.804;8.764;2023-04-01T00:22:07;10.30;84.90
25953;DHT22;13750;50.804;8.764;2023-04-01T00:24:37;10.30;84.80
25953;DHT22;13750;50.804;8.764;2023-04-01T00:27:05;10.30;84.90
25953;DHT22;13750;50.804;8.764;2023-04-01T00:29:31;10.20;84.90
25953;DHT22;13750;50.804;8.764;2023-04-01T00:31:57;10.20;84.90
25953;DHT22;13750;50.804;8.764;2023-04-01T00:34:23;10.20;84.90
25953;DHT22;13750;50.804;8.764;2023-04-01T00:36:50;10.20;84.90
25953;DHT22;13750;50.804;8.764;2023-04-01T00:39:16;10.20;85.00
25953;DHT22;13750;50.804;8.764;2023-04-01T00:41:42;10.20;85.00
25953;DHT22;13750;50.804;8.764;2023-04-01T00:44:26;10.20;85.10
25953;DHT22;13750;50.804;8.764;2023-04-01T00:46:52;10.20;85.00
25953;DHT22;13750;50.804;8.764;2023-04-01T00:49:20;10.20;85.00
25953;DHT22;13750;50.804;8.764;2023-04-01T00:51:48;10.20;85.00
25953;DHT22;13750;50.804;8.764;2023-04-01T00:54:16;10.20;85.10
25953;DHT22;13750;50.804;8.764;2023-04-01T00:56:49;10.20;85.00
25953;DHT22;13750;50.804;8.764;2023-04-01T00:59:23;10.20;85.10
25953;DHT22;13750;50.804;8.764;2023-04-01T01:01:49;10.10;85.10
25953;DHT22;13750;50.804;8.764;2023-04-01T01:04:25;10.20;85.10
25953;DHT22;13750;50.804;8.764;2023-04-01T01:10:02;10.20;85.00
25953;DHT22;13750;50.804;8.764;2023-04-01T01:12:43;10.10;85.00
25953;DHT22;13750;50.804;8.764;2023-04-01T01:15:21;10.10;85.00
25953;DHT22;13750;50.804;8.764;2023-04-01T01:17:59;10.10;84.90
25953;DHT22;13750;50.804;8.764;2023-04-01T01:26:40;10.20;85.00
25953;DHT22;13750;50.804;8.764;2023-04-01T01:36:56;10.20;84.70
25953;DHT22;13750;50.804;8.764;2023-04-01T01:39:27;10.10;84.70
25953;DHT22;13750;50.804;8.764;2023-04-01T01:41:56;10.10;84.70
25953;DHT22;13750;50.804;8.764;2023-04-01T01:44:24;10.10;84.60
25953;DHT22;13750;50.804;8.764;2023-04-01T01:46:51;10.10;84.70
25953;DHT22;13750;50.804;8.764;2023-04-01T01:49:17;10.10;84.60
25953;DHT22;13750;50.804;8.764;2023-04-01T01:51:44;10.10;84.60
25953;DHT22;13750;50.804;8.764;2023-04-01T01:54:14;10.10;84.60
25953;DHT22;13750;50.804;8.764;2023-04-01T01:56:41;10.10;84.50
25953;DHT22;13750;50.804;8.764;2023-04-01T01:59:10;10.10;84.50
25953;DHT22;13750;50.804;8.764;2023-04-01T02:01:39;10.10;84.50
25953;DHT22;13750;50.804;8.764;2023-04-01T02:04:05;10.10;84.40
25953;DHT22;13750;50.804;8.764;2023-04-01T02:06:34;10.10;84.40
25953;DHT22;13750;50.804;8.764;2023-04-01T02:09:04;10.00;84.30
25953;DHT22;13750;50.804;8.764;2023-04-01T02:14:10;10.00;84.30
25953;DHT22;13750;50.804;8.764;2023-04-01T02:16:41;10.00;84.40
25953;DHT22;13750;50.804;8.764;2023-04-01T02:19:10;10.00;84.40
25953;DHT22;13750;50.804;8.764;2023-04-01T02:21:39;10.00;84.40
25953;DHT22;13750;50.804;8.764;2023-04-01T02:24:09;10.00;84.40
25953;DHT22;13750;50.804;8.764;2023-04-01T02:26:36;10.00;84.30
25953;DHT22;13750;50.804;8.764;2023-04-01T02:29:03;10.00;84.30
25953;DHT22;13750;50.804;8.764;2023-04-01T02:31:31;10.00;84.30
25953;DHT22;13750;50.804;8.764;2023-04-01T02:33:57;10.00;84.20
25953;DHT22;13750;50.804;8.764;2023-04-01T02:36:24;10.00;84.40
25953;DHT22;13750;50.804;8.764;2023-04-01T02:38:54;10.00;84.40
25953;DHT22;13750;50.804;8.764;2023-04-01T02:41:21;10.00;84.30
25953;DHT22;13750;50.804;8.764;2023-04-01T02:43:46;10.00;84.20
25953;DHT22;13750;50.804;8.764;2023-04-01T02:46:12;9.90;84.30
25953;DHT22;13750;50.804;8.764;2023-04-01T02:48:37;9.90;84.30
25953;DHT22;13750;50.804;8.764;2023-04-01T02:51:03;9.90;84.40
25953;DHT22;13750;50.804;8.764;2023-04-01T02:53:29;9.90;84.40
25953;DHT22;13750;50.804;8.764;2023-04-01T02:55:54;10.00;84.40
25953;DHT22;13750;50.804;8.764;2023-04-01T02:58:21;10.00;84.30
25953;DHT22;13750;50.804;8.764;2023-04-01T03:00:46;9.90;84.30
25953;DHT22;13750;50.804;8.764;2023-04-01T03:03:12;9.90;84.20
25953;DHT22;13750;50.804;8.764;2023-04-01T03:05:39;9.90;84.30
25953;DHT22;13750;50.804;8.764;2023-04-01T03:08:04;9.90;84.30
25953;DHT22;13750;50.804;8.764;2023-04-01T03:10:31;9.90;84.20
25953;DHT22;13750;50.804;8.764;2023-04-01T03:12:57;9.90;84.20
25953;DHT22;13750;50.804;8.764;2023-04-01T03:15:22;9.90;84.30
25953;DHT22;13750;50.804;8.764;2023-04-01T03:17:50;9.90;84.30
25953;DHT22;13750;50.804;8.764;2023-04-01T03:20:16;9.90;84.40
25953;DHT22;13750;50.804;8.764;2023-04-01T03:22:42;9.90;84.40
25953;DHT22;13750;50.804;8.764;2023-04-01T03:25:08;9.90;84.30
25953;DHT22;13750;50.804;8.764;2023-04-01T03:27:34;9.90;84.40
25953;DHT22;13750;50.804;8.764;2023-04-01T03:30:02;9.90;84.40
25953;DHT22;13750;50.804;8.764;2023-04-01T03:32:28;9.90;84.50
25953;DHT22;13750;50.804;8.764;2023-04-01T03:34:53;9.80;84.40
25953;DHT22;13750;50.804;8.764;2023-04-01T03:37:19;9.80;84.40
25953;DHT22;13750;50.804;8.764;2023-04-01T03:39:45;9.90;84.30
25953;DHT22;13750;50.804;8.764;2023-04-01T03:42:11;9.80;84.30
25953;DHT22;13750;50.804;8.764;2023-04-01T03:44:39;9.80;84.30
25953;DHT22;13750;50.804;8.764;2023-04-01T03:47:05;9.80;84.20
25953;DHT22;13750;50.804;8.764;2023-04-01T03:49:31;9.80;84.30
25953;DHT22;13750;50.804;8.764;2023-04-01T03:51:58;9.80;84.30
25953;DHT22;13750;50.804;8.764;2023-04-01T03:54:24;9.80;84.20
25953;DHT22;13750;50.804;8.764;2023-04-01T03:56:49;9.80;84.20
25953;DHT22;13750;50.804;8.764;2023-04-01T03:59:15;9.80;84.10
25953;DHT22;13750;50.804;8.764;2023-04-01T04:01:41;9.80;84.20
25953;DHT22;13750;50.804;8.764;2023-04-01T04:04:06;9.80;84.10
25953;DHT22;13750;50.804;8.764;2023-04-01T04:06:33;9.80;84.10
25953;DHT22;13750;50.804;8.764;2023-04-01T04:08:58;9.80;83.90
25953;DHT22;13750;50.804;8.764;2023-04-01T04:11:24;9.80;83.90
25953;DHT22;13750;50.804;8.764;2023-04-01T04:13:50;9.80;83.90
25953;DHT22;13750;50.804;8.764;2023-04-01T04:16:16;9.80;84.00
25953;DHT22;13750;50.804;8.764;2023-04-01T04:18:42;9.80;84.00
25953;DHT22;13750;50.804;8.764;2023-04-01T04:21:12;9.80;84.00
25953;DHT22;13750;50.804;8.764;2023-04-01T04:23:37;9.80;83.90
25953;DHT22;13750;50.804;8.764;2023-04-01T04:26:06;9.80;83.90
25953;DHT22;13750;50.804;8.764;2023-04-01T04:28:32;9.80;83.70
25953;DHT22;13750;50.804;8.764;2023-04-01T04:30:58;9.80;83.70
25953;DHT22;13750;50.804;8.764;2023-04-01T04:33:34;9.80;83.70
25953;DHT22;13750;50.804;8.764;2023-04-01T04:36:00;9.80;83.70
25953;DHT22;13750;50.804;8.764;2023-04-01T04:38:26;9.80;83.70
25953;DHT22;13750;50.804;8.764;2023-04-01T04:40:52;9.70;83.60
25953;DHT22;13750;50.804;8.764;2023-04-01T04:43:18;9.70;83.70
25953;DHT22;13750;50.804;8.764;2023-04-01T04:45:44;9.70;83.70
25953;DHT22;13750;50.804;8.764;2023-04-01T04:48:15;9.70;83.70
25953;DHT22;13750;50.804;8.764;2023-04-01T04:50:46;9.70;83.60
25953;DHT22;13750;50.804;8.764;2023-04-01T04:53:13;9.70;83.70
25953;DHT22;13750;50.804;8.764;2023-04-01T04:55:46;9.70;83.70
25953;DHT22;13750;50.804;8.764;2023-04-01T04:58:12;9.70;83.70
25953;DHT22;13750;50.804;8.764;2023-04-01T05:00:38;9.70;83.70
25953;DHT22;13750;50.804;8.764;2023-04-01T05:03:03;9.70;83.70
25953;DHT22;13750;50.804;8.764;2023-04-01T05:05:29;9.70;83.80
25953;DHT22;13750;50.804;8.764;2023-04-01T05:07:55;9.70;83.70
25953;DHT22;13750;50.804;8.764;2023-04-01T05:10:20;9.70;83.70
25953;DHT22;13750;50.804;8.764;2023-04-01T05:12:46;9.70;83.70
25953;DHT22;13750;50.804;8.764;2023-04-01T05:15:12;9.70;83.70
25953;DHT22;13750;50.804;8.764;2023-04-01T05:17:37;9.70;83.70
25953;DHT22;13750;50.804;8.764;2023-04-01T05:20:03;9.70;83.70
25953;DHT22;13750;50.804;8.764;2023-04-01T05:22:29;9.70;83.80
25953;DHT22;13750;50.804;8.764;2023-04-01T05:24:55;9.70;83.80
25953;DHT22;13750;50.804;8.764;2023-04-01T05:27:21;9.70;83.70
25953;DHT22;13750;50.804;8.764;2023-04-01T05:29:49;9.70;83.80
25953;DHT22;13750;50.804;8.764;2023-04-01T05:32:15;9.70;83.90
25953;DHT22;13750;50.804;8.764;2023-04-01T05:34:41;9.70;83.90
25953;DHT22;13750;50.804;8.764;2023-04-01T05:37:06;9.70;83.90
25953;DHT22;13750;50.804;8.764;2023-04-01T05:39:37;9.70;83.90
25953;DHT22;13750;50.804;8.764;2023-04-01T05:42:04;9.70;84.00
25953;DHT22;13750;50.804;8.764;2023-04-01T05:44:30;9.70;84.10
25953;DHT22;13750;50.804;8.764;2023-04-01T05:46:56;9.70;84.10
25953;DHT22;13750;50.804;8.764;2023-04-01T05:49:21;9.70;84.20
25953;DHT22;13750;50.804;8.764;2023-04-01T05:51:47;9.70;84.10
25953;DHT22;13750;50.804;8.764;2023-04-01T05:54:12;9.70;84.20
25953;DHT22;13750;50.804;8.764;2023-04-01T05:56:38;9.70;84.10
25953;DHT22;13750;50.804;8.764;2023-04-01T05:59:04;9.70;84.20
25953;DHT22;13750;50.804;8.764;2023-04-01T06:01:30;9.70;84.20
25953;DHT22;13750;50.804;8.764;2023-04-01T06:03:55;9.70;84.30
25953;DHT22;13750;50.804;8.764;2023-04-01T06:06:26;9.70;84.40
25953;DHT22;13750;50.804;8.764;2023-04-01T06:08:53;9.70;84.50
25953;DHT22;13750;50.804;8.764;2023-04-01T06:11:35;9.70;84.40
25953;DHT22;13750;50.804;8.764;2023-04-01T06:14:05;9.70;84.50
25953;DHT22;13750;50.804;8.764;2023-04-01T06:24:36;9.70;84.60
25953;DHT22;13750;50.804;8.764;2023-04-01T06:38:51;9.80;84.80
25953;DHT22;13750;50.804;8.764;2023-04-01T06:46:32;9.70;84.70
25953;DHT22;13750;50.804;8.764;2023-04-01T06:54:34;9.90;84.80
25953;DHT22;13750;50.804;8.764;2023-04-01T06:59:45;9.90;84.80
25953;DHT22;13750;50.804;8.764;2023-04-01T07:02:16;9.90;84.70
25953;DHT22;13750;50.804;8.764;2023-04-01T07:04:51;9.90;84.80
25953;DHT22;13750;50.804;8.764;2023-04-01T07:07:35;9.90;84.80
25953;DHT22;13750;50.804;8.764;2023-04-01T07:10:15;10.00;84.80
25953;DHT22;13750;50.804;8.764;2023-04-01T07:12:53;10.00;84.80
25953;DHT22;13750;50.804;8.764;2023-04-01T07:15:21;10.00;84.90
25953;DHT22;13750;50.804;8.764;2023-04-01T07:17:54;10.00;84.80
25953;DHT22;13750;50.804;8.764;2023-04-01T07:20:25;10.10;84.90
25953;DHT22;13750;50.804;8.764;2023-04-01T07:22:55;10.10;84.70
25953;DHT22;13750;50.804;8.764;2023-04-01T07:25:30;10.10;84.70
25953;DHT22;13750;50.804;8.764;2023-04-01T07:28:04;10.10;84.70
25953;DHT22;13750;50.804;8.764;2023-04-01T07:30:52;10.10;84.70
25953;DHT22;13750;50.804;8.764;2023-04-01T07:33:24;10.20;84.70
25953;DHT22;13750;50.804;8.764;2023-04-01T07:36:14;10.10;84.60
25953;DHT22;13750;50.804;8.764;2023-04-01T07:39:01;10.20;84.60
25953;DHT22;13750;50.804;8.764;2023-04-01T07:46:53;10.20;84.20
25953;DHT22;13750;50.804;8.764;2023-04-01T07:57:25;10.30;84.20
25953;DHT22;13750;50.804;8.764;2023-04-01T08:00:04;10.40;84.20
25953;DHT22;13750;50.804;8.764;2023-04-01T08:05:29;10.40;84.00
25953;DHT22;13750;50.804;8.764;2023-04-01T08:10:51;10.40;83.90
25953;DHT22;13750;50.804;8.764;2023-04-01T08:13:40;10.50;84.00
25953;DHT22;13750;50.804;8.764;2023-04-01T08:16:23;10.50;84.00
25953;DHT22;13750;50.804;8.764;2023-04-01T08:21:37;10.60;84.00
25953;DHT22;13750;50.804;8.764;2023-04-01T08:24:39;10.60;83.90
25953;DHT22;13750;50.804;8.764;2023-04-01T08:27:16;10.60;83.80
25953;DHT22;13750;50.804;8.764;2023-04-01T08:29:48;10.50;83.80
25953;DHT22;13750;50.804;8.764;2023-04-01T08:32:26;10.50;83.60
25953;DHT22;13750;50.804;8.764;2023-04-01T08:37:52;10.50;83.90
25953;DHT22;13750;50.804;8.764;2023-04-01T08:40:29;10.50;84.00
25953;DHT22;13750;50.804;8.764;2023-04-01T08:46:02;10.60;83.90
25953;DHT22;13750;50.804;8.764;2023-04-01T08:48:56;10.60;83.90
25953;DHT22;13750;50.804;8.764;2023-04-01T08:57:56;10.60;83.80
25953;DHT22;13750;50.804;8.764;2023-04-01T09:00:38;10.60;83.90
25953;DHT22;13750;50.804;8.764;2023-04-01T09:06:40;10.60;84.00
25953;DHT22;13750;50.804;8.764;2023-04-01T09:09:40;10.60;84.10
25953;DHT22;13750;50.804;8.764;2023-04-01T09:18:13;10.60;83.80
25953;DHT22;13750;50.804;8.764;2023-04-01T09:23:38;10.70;84.00
25953;DHT22;13750;50.804;8.764;2023-04-01T09:29:14;10.70;83.60
25953;DHT22;13750;50.804;8.764;2023-04-01T09:32:08;10.80;83.60
25953;DHT22;13750;50.804;8.764;2023-04-01T09:34:51;10.70;83.50
25953;DHT22;13750;50.804;8.764;2023-04-01T09:37:21;10.80;83.50
25953;DHT22;13750;50.804;8.764;2023-04-01T09:43:29;10.80;83.60
25953;DHT22;13750;50.804;8.764;2023-04-01T09:52:14;10.90;83.60
25953;DHT22;13750;50.804;8.764;2023-04-01T09:58:21;11.00;83.70
25953;DHT22;13750;50.804;8.764;2023-04-01T10:06:51;11.10;83.70
25953;DHT22;13750;50.804;8.764;2023-04-01T10:17:59;11.30;83.40
25953;DHT22;13750;50.804;8.764;2023-04-01T10:24:19;11.40;83.50
25953;DHT22;13750;50.804;8.764;2023-04-01T10:26:42;11.40;83.60
25953;DHT22;13750;50.804;8.764;2023-04-01T10:35:49;11.50;83.20
25953;DHT22;13750;50.804;8.764;2023-04-01T10:38:49;11.40;83.20
25953;DHT22;13750;50.804;8.764;2023-04-01T10:44:20;11.50;83.40
25953;DHT22;13750;50.804;8.764;2023-04-01T10:47:26;11.50;83.50
25953;DHT22;13750;50.804;8.764;2023-04-01T10:50:19;11.50;83.50
25953;DHT22;13750;50.804;8.764;2023-04-01T10:56:55;11.50;83.40
25953;DHT22;13750;50.804;8.764;2023-04-01T11:17:10;11.60;82.90
25953;DHT22;13750;50.804;8.764;2023-04-01T11:20:07;11.50;83.00
25953;DHT22;13750;50.804;8.764;2023-04-01T11:22:58;11.50;82.90
25953;DHT22;13750;50.804;8.764;2023-04-01T11:34:09;11.50;83.30
25953;DHT22;13750;50.804;8.764;2023-04-01T11:42:34;11.60;83.60
25953;DHT22;13750;50.804;8.764;2023-04-01T11:47:53;11.60;83.60
25953;DHT22;13750;50.804;8.764;2023-04-01T11:50:51;11.50;83.50
25953;DHT22;13750;50.804;8.764;2023-04-01T11:56:19;11.50;83.70
25953;DHT22;13750;50.804;8.764;2023-04-01T12:04:51;11.50;84.20
25953;DHT22;13750;50.804;8.764;2023-04-01T12:10:21;11.60;84.20
25953;DHT22;13750;50.804;8.764;2023-04-01T12:16:13;11.70;83.90
25953;DHT22;13750;50.804;8.764;2023-04-01T12:19:35;11.60;83.90
25953;DHT22;13750;50.804;8.764;2023-04-01T12:21:38;11.70;83.80
25953;DHT22;13750;50.804;8.764;2023-04-01T12:27:40;11.70;82.80
25953;DHT22;13750;50.804;8.764;2023-04-01T12:30:34;11.70;82.80
25953;DHT22;13750;50.804;8.764;2023-04-01T12:33:20;11.70;82.90
25953;DHT22;13750;50.804;8.764;2023-04-01T12:39:37;11.90;83.00
25953;DHT22;13750;50.804;8.764;2023-04-01T12:55:48;12.00;82.40
25953;DHT22;13750;50.804;8.764;2023-04-01T12:58:40;12.00;82.20
25953;DHT22;13750;50.804;8.764;2023-04-01T13:04:34;12.00;82.20
25953;DHT22;13750;50.804;8.764;2023-04-01T13:07:33;12.10;82.10
25953;DHT22;13750;50.804;8.764;2023-04-01T13:10:44;12.00;82.00
25953;DHT22;13750;50.804;8.764;2023-04-01T13:24:11;11.90;81.20
25953;DHT22;13750;50.804;8.764;2023-04-01T13:40:02;11.80;81.30
25953;DHT22;13750;50.804;8.764;2023-04-01T13:42:54;11.80;81.40
25953;DHT22;13750;50.804;8.764;2023-04-01T13:45:27;11.80;81.50
25953;DHT22;13750;50.804;8.764;2023-04-01T13:48:30;11.80;81.00
25953;DHT22;13750;50.804;8.764;2023-04-01T14:13:06;11.80;80.40
25953;DHT22;13750;50.804;8.764;2023-04-01T14:24:28;11.80;80.60
25953;DHT22;13750;50.804;8.764;2023-04-01T14:27:16;11.80;80.80
25953;DHT22;13750;50.804;8.764;2023-04-01T14:38:46;12.00;81.00
25953;DHT22;13750;50.804;8.764;2023-04-01T14:43:47;12.10;80.90
25953;DHT22;13750;50.804;8.764;2023-04-01T14:49:23;12.10;80.90
25953;DHT22;13750;50.804;8.764;2023-04-01T14:52:32;12.10;80.50
25953;DHT22;13750;50.804;8.764;2023-04-01T15:31:45;11.90;81.10
25953;DHT22;13750;50.804;8.764;2023-04-01T15:34:52;11.90;81.20
25953;DHT22;13750;50.804;8.764;2023-04-01T15:46:18;12.00;81.10
25953;DHT22;13750;50.804;8.764;2023-04-01T15:51:45;12.10;80.80
25953;DHT22;13750;50.804;8.764;2023-04-01T16:08:33;12.00;80.70
25953;DHT22;13750;50.804;8.764;2023-04-01T16:11:29;12.00;80.80
25953;DHT22;13750;50.804;8.764;2023-04-01T16:14:31;12.00;80.90
25953;DHT22;13750;50.804;8.764;2023-04-01T16:22:28;11.90;81.10
25953;DHT22;13750;50.804;8.764;2023-04-01T16:28:36;11.90;81.10
25953;DHT22;13750;50.804;8.764;2023-04-01T16:37:21;11.90;81.20
25953;DHT22;13750;50.804;8.764;2023-04-01T16:46:12;11.90;81.10
25953;DHT22;13750;50.804;8.764;2023-04-01T16:51:57;11.80;80.10
25953;DHT22;13750;50.804;8.764;2023-04-01T17:02:35;11.60;79.50
25953;DHT22;13750;50.804;8.764;2023-04-01T17:05:08;11.60;79.70
25953;DHT22;13750;50.804;8.764;2023-04-01T17:08:00;11.60;79.70
25953;DHT22;13750;50.804;8.764;2023-04-01T17:10:42;11.60;79.80
25953;DHT22;13750;50.804;8.764;2023-04-01T17:13:34;11.70;79.90
25953;DHT22;13750;50.804;8.764;2023-04-01T17:58:26;11.40;79.70
25953;DHT22;13750;50.804;8.764;2023-04-01T18:24:41;11.30;80.70
25953;DHT22;13750;50.804;8.764;2023-04-01T18:35:16;11.30;80.80
25953;DHT22;13750;50.804;8.764;2023-04-01T18:40:18;11.30;81.00
25953;DHT22;13750;50.804;8.764;2023-04-01T18:46:21;11.30;81.30
25953;DHT22;13750;50.804;8.764;2023-04-01T18:57:17;11.20;81.70
25953;DHT22;13750;50.804;8.764;2023-04-01T18:59:53;11.20;81.80
25953;DHT22;13750;50.804;8.764;2023-04-01T19:05:16;11.20;82.10
25953;DHT22;13750;50.804;8.764;2023-04-01T19:13:10;11.10;82.50
25953;DHT22;13750;50.804;8.764;2023-04-01T19:21:26;11.10;83.00
25953;DHT22;13750;50.804;8.764;2023-04-01T19:32:46;11.10;83.50
25953;DHT22;13750;50.804;8.764;2023-04-01T19:35:23;11.10;83.60
25953;DHT22;13750;50.804;8.764;2023-04-01T19:40:54;11.00;83.70
25953;DHT22;13750;50.804;8.764;2023-04-01T19:51:14;11.00;83.90
25953;DHT22;13750;50.804;8.764;2023-04-01T19:53:59;11.00;84.00
25953;DHT22;13750;50.804;8.764;2023-04-01T19:56:43;11.00;84.10
25953;DHT22;13750;50.804;8.764;2023-04-01T20:00:02;11.00;84.20
25953;DHT22;13750;50.804;8.764;2023-04-01T20:04:48;11.00;84.40
25953;DHT22;13750;50.804;8.764;2023-04-01T20:07:30;10.90;84.50
25953;DHT22;13750;50.804;8.764;2023-04-01T20:13:25;10.90;84.60
25953;DHT22;13750;50.804;8.764;2023-04-01T20:16:11;10.90;84.70
25953;DHT22;13750;50.804;8.764;2023-04-01T20:21:33;10.90;84.70
25953;DHT22;13750;50.804;8.764;2023-04-01T20:24:20;10.90;84.70
25953;DHT22;13750;50.804;8.764;2023-04-01T20:27:14;10.90;84.70
25953;DHT22;13750;50.804;8.764;2023-04-01T20:36:00;10.90;84.80
25953;DHT22;13750;50.804;8.764;2023-04-01T20:44:12;10.90;85.00
25953;DHT22;13750;50.804;8.764;2023-04-01T20:49:39;10.90;85.20
25953;DHT22;13750;50.804;8.764;2023-04-01T20:58:20;10.80;85.30
25953;DHT22;13750;50.804;8.764;2023-04-01T21:03:49;10.80;85.30
25953;DHT22;13750;50.804;8.764;2023-04-01T21:06:37;10.80;85.40
25953;DHT22;13750;50.804;8.764;2023-04-01T21:09:29;10.80;85.40
25953;DHT22;13750;50.804;8.764;2023-04-01T21:15:19;10.80;85.50
25953;DHT22;13750;50.804;8.764;2023-04-01T21:23:53;10.70;85.60
25953;DHT22;13750;50.804;8.764;2023-04-01T21:29:24;10.70;85.70
25953;DHT22;13750;50.804;8.764;2023-04-01T21:32:19;10.80;85.70
25953;DHT22;13750;50.804;8.764;2023-04-01T22:03:14;10.70;86.00
25953;DHT22;13750;50.804;8.764;2023-04-01T22:05:21;10.70;86.00
25953;DHT22;13750;50.804;8.764;2023-04-01T22:10:44;10.60;86.00
25953;DHT22;13750;50.804;8.764;2023-04-01T22:13:33;10.60;86.00
25953;DHT22;13750;50.804;8.764;2023-04-01T22:18:53;10.70;86.10
25953;DHT22;13750;50.804;8.764;2023-04-01T22:21:33;10.60;86.00
25953;DHT22;13750;50.804;8.764;2023-04-01T22:24:12;10.60;86.10
25953;DHT22;13750;50.804;8.764;2023-04-01T22:29:36;10.60;86.10
25953;DHT22;13750;50.804;8.764;2023-04-01T22:32:14;10.60;86.10
25953;DHT22;13750;50.804;8.764;2023-04-01T22:35:02;10.60;86.10
25953;DHT22;13750;50.804;8.764;2023-04-01T22:37:49;10.60;86.10
25953;DHT22;13750;50.804;8.764;2023-04-01T22:40:38;10.60;86.10
25953;DHT22;13750;50.804;8.764;2023-04-01T22:43:16;10.60;86.10
25953;DHT22;13750;50.804;8.764;2023-04-01T22:45:53;10.60;86.10
25953;DHT22;13750;50.804;8.764;2023-04-01T22:48:41;10.60;86.10
25953;DHT22;13750;50.804;8.764;2023-04-01T22:51:18;10.60;86.00
25953;DHT22;13750;50.804;8.764;2023-04-01T22:54:04;10.60;86.00
25953;DHT22;13750;50.804;8.764;2023-04-01T22:56:44;10.60;85.90
25953;DHT22;13750;50.804;8.764;2023-04-01T22:59:18;10.60;85.90
25953;DHT22;13750;50.804;8.764;2023-04-01T23:01:56;10.60;85.90
25953;DHT22;13750;50.804;8.764;2023-04-01T23:04:32;10.60;85.90
25953;DHT22;13750;50.804;8.764;2023-04-01T23:07:02;10.60;85.70
25953;DHT22;13750;50.804;8.764;2023-04-01T23:09:33;10.60;85.60
25953;DHT22;13750;50.804;8.764;2023-04-01T23:12:13;10.60;85.60
25953;DHT22;13750;50.804;8.764;2023-04-01T23:15:01;10.60;85.70
25953;DHT22;13750;50.804;8.764;2023-04-01T23:20:43;10.60;85.80
25953;DHT22;13750;50.804;8.764;2023-04-01T23:23:15;10.50;85.80
25953;DHT22;13750;50.804;8.764;2023-04-01T23:28:53;10.60;85.60
25953;DHT22;13750;50.804;8.764;2023-04-01T23:31:45;10.50;85.50
25953;DHT22;13750;50.804;8.764;2023-04-01T23:36:43;10.50;85.60
25953;DHT22;13750;50.804;8.764;2023-04-01T23:39:22;10.50;85.60
25953;DHT22;13750;50.804;8.764;2023-04-01T23:41:48;10.50;85.60
25953;DHT22;13750;50.804;8.764;2023-04-01T23:44:16;10.50;85.60
25953;DHT22;13750;50.804;8.764;2023-04-01T23:46:44;10.50;85.50
25953;DHT22;13750;50.804;8.764;2023-04-01T23:49:17;10.50;85.40
25953;DHT22;13750;50.804;8.764;2023-04-01T23:51:59;10.50;85.50
25953;DHT22;13750;50.804;8.764;2023-04-01T23:54:44;10.50;85.50
25953;DHT22;13750;50.804;8.764;2023-04-01T23:57:18;10.40;85.30
